Time;durP1;ratioP1;P1;durP2;ratioP2;P2;SDS_P1;SDS_P2;PMS_P1;PMS_P2;Temp;Humidity;BMP_temperature;BMP_pressure;BME280_temperature;BME280_humidity;BME280_pressure;Samples;Min_cycle;Max_cycle;Signal;HPM_P1;HPM_P2
2022/03/26 00:01:16;;;;;;;;;;;;;;;;;;5016692;28;1834;-61
2022/03/26 00:03:41;;;;;;;;;;;;;;;;;;5051400;28;995;-62
2022/03/26 00:06:07;;;;;;;;;;;;;;;;;;5017129;28;1902;-62
2022/03/26 00:08:32;;;;;;;;;;;;;;;;;;5051653;28;869;-62
2022/03/26 00:10:57;;;;;;;;;;;;;;;;;;5051077;28;832;-62
2022/03/26 00:13:22;;;;;;;;;;;;;;;;;;5051234;28;821;-61
2022/03/26 00:15:48;;;;;;;;;;;;;;;;;;5051294;28;844;-62
2022/03/26 00:18:15;;;;;;;;;;;;;;;;;;5033468;28;1066;-62
2022/03/26 00:20:42;;;;;;;;;;;;;;;;;;5051079;28;1111;-62
2022/03/26 00:23:07;;;;;;;;;;;;;;;;;;5051365;28;839;-62
2022/03/26 00:25:33;;;;;;;;;;;;;;;;;;5033478;28;1967;-62
2022/03/26 00:27:58;;;;;;;;;;;;;;;;;;5050899;28;861;-62
2022/03/26 00:30:23;;;;;;;;;;;;;;;;;;5050904;28;813;-62
2022/03/26 00:32:48;;;;;;;;;;;;;;;;;;5051242;28;884;-62
2022/03/26 00:35:14;;;;;;;;;;;;;;;;;;5051373;28;651;-62
2022/03/26 00:37:40;;;;;;;;;;;;;;;;;;5051161;28;910;-62
2022/03/26 00:40:06;;;;;;;;;;;;;;;;;;5050655;28;845;-61
2022/03/26 00:42:32;;;;;;;;;;;;;;;;;;5050554;28;805;-62
2022/03/26 00:44:57;;;;;;;;;;;;;;;;;;5050295;28;868;-62
2022/03/26 00:47:22;;;;;;;;;;;;;;;;;;5050128;28;1975;-62
2022/03/26 00:49:47;;;;;;;;;;;;;;;;;;5050059;28;781;-61
2022/03/26 00:52:13;;;;;;;;;;;;;;;;;;5049930;28;900;-62
2022/03/26 00:54:38;;;;;;;;;;;;;;;;;;5050647;28;884;-62
2022/03/26 00:57:03;;;;;;;;;;;;;;;;;;5032361;28;1042;-62
2022/03/26 00:59:29;;;;;;;;;;;;;;;;;;5049826;28;845;-62
2022/03/26 01:01:54;;;;;;;;;;;;;;;;;;5032710;28;833;-62
2022/03/26 01:04:19;;;;;;;;;;;;;;;;;;5050210;28;904;-62
2022/03/26 01:06:45;;;;;;;;;;;;;;;;;;5050557;28;1956;-62
2022/03/26 01:09:11;;;;;;;;;;;;;;;;;;5050527;28;991;-62
2022/03/26 01:11:36;;;;;;;;;;;;;;;;;;5051806;28;859;-62
2022/03/26 01:14:01;;;;;;;;;;;;;;;;;;5053914;28;983;-62
2022/03/26 01:16:27;;;;;;;;;;;;;;;;;;5053866;28;899;-62
2022/03/26 01:18:53;;;;;;;;;;;;;;;;;;5035409;28;849;-62
2022/03/26 01:21:19;;;;;;;;;;;;;;;;;;5053989;28;832;-62
2022/03/26 01:23:46;;;;;;;;;;;;;;;;;;5054213;28;856;-62
2022/03/26 01:26:12;;;;;;;;;;;;;;;;;;5053805;28;1910;-62
2022/03/26 01:28:37;;;;;;;;;;;;;;;;;;5053712;28;829;-62
2022/03/26 01:31:02;;;;;;;;;;;;;;;;;;5035636;28;927;-62
2022/03/26 01:33:28;;;;;;;;;;;;;;;;;;5053297;28;832;-62
2022/03/26 01:35:54;;;;;;;;;;;;;;;;;;5053569;28;899;-62
2022/03/26 01:38:19;;;;;;;;;;;;;;;;;;5053913;28;1027;-62
2022/03/26 01:40:44;;;;;;;;;;;;;;;;;;5053630;28;888;-62
2022/03/26 01:43:09;;;;;;;;;;;;;;;;;;5053423;28;903;-62
2022/03/26 01:45:35;;;;;;;;;;;;;;;;;;5053166;28;1906;-62
2022/03/26 01:48:00;;;;;;;;;;;;;;;;;;5035457;28;999;-61
2022/03/26 01:50:27;;;;;;;;;;;;;;;;;;5035691;28;893;-61
2022/03/26 01:52:52;;;;;;;;;;;;;;;;;;5053523;28;884;-61
2022/03/26 01:55:18;;;;;;;;;;;;;;;;;;5054728;28;871;-62
2022/03/26 01:57:44;;;;;;;;;;;;;;;;;;5053590;28;874;-62
2022/03/26 02:00:09;;;;;;;;;;;;;;;;;;5053512;28;872;-62
2022/03/26 02:02:35;;;;;;;;;;;;;;;;;;5035328;28;849;-61
2022/03/26 02:05:00;;;;;;;;;;;;;;;;;;5053473;28;838;-62
2022/03/26 02:07:26;;;;;;;;;;;;;;;;;;5053560;28;1902;-61
2022/03/26 02:09:51;;;;;;;;;;;;;;;;;;5053425;28;920;-61
2022/03/26 02:12:27;;;;;;;;;;;;;;;;;;5053697;28;793;-62
2022/03/26 02:14:52;;;;;;;;;;;;;;;;;;5053450;28;912;-62
2022/03/26 02:17:18;;;;;;;;;;;;;;;;;;5053577;28;833;-62
2022/03/26 02:20:04;;;;;;;;;;;;;;;;;;5053405;28;797;-62
2022/03/26 02:22:30;;;;;;;;;;;;;;;;;;5052858;28;1101;-62
2022/03/26 02:24:55;;;;;;;;;;;;;;;;;;5052871;28;1278;-62
2022/03/26 02:27:21;;;;;;;;;;;;;;;;;;5052847;28;1882;-62
2022/03/26 02:29:47;;;;;;;;;;;;;;;;;;5052214;28;861;-62
2022/03/26 02:32:12;;;;;;;;;;;;;;;;;;5052736;28;1007;-62
2022/03/26 02:34:38;;;;;;;;;;;;;;;;;;5052358;28;861;-61
2022/03/26 02:37:03;;;;;;;;;;;;;;;;;;5052418;28;923;-61
2022/03/26 02:39:28;;;;;;;;;;;;;;;;;;5052743;28;1025;-62
2022/03/26 02:41:55;;;;;;;;;;;;;;;;;;5052322;28;1003;-61
2022/03/26 02:44:20;;;;;;;;;;;;;;;;;;5052762;28;811;-61
2022/03/26 02:46:46;;;;;;;;;;;;;;;;;;5034219;28;1963;-61
2022/03/26 02:49:12;;;;;;;;;;;;;;;;;;5052378;28;822;-61
2022/03/26 02:51:37;;;;;;;;;;;;;;;;;;5051790;28;1398;-61
2022/03/26 02:54:02;;;;;;;;;;;;;;;;;;5052292;28;936;-61
2022/03/26 02:56:27;;;;;;;;;;;;;;;;;;5052083;28;1043;-61
2022/03/26 02:58:53;;;;;;;;;;;;;;;;;;5051658;28;979;-61
2022/03/26 03:01:19;;;;;;;;;;;;;;;;;;5052600;28;914;-61
2022/03/26 03:03:45;;;;;;;;;;;;;;;;;;5051995;28;809;-61
2022/03/26 03:06:10;;;;;;;;;;;;;;;;;;5051428;28;1975;-61
2022/03/26 03:08:35;;;;;;;;;;;;;;;;;;5051962;28;856;-61
2022/03/26 03:11:01;;;;;;;;;;;;;;;;;;5051800;28;833;-61
2022/03/26 03:13:26;;;;;;;;;;;;;;;;;;5052145;28;988;-61
2022/03/26 03:15:52;;;;;;;;;;;;;;;;;;5051413;28;1034;-61
2022/03/26 03:18:17;;;;;;;;;;;;;;;;;;5052052;28;872;-61
2022/03/26 03:20:43;;;;;;;;;;;;;;;;;;5051546;28;1003;-61
2022/03/26 03:23:08;;;;;;;;;;;;;;;;;;5051893;28;923;-61
2022/03/26 03:25:33;;;;;;;;;;;;;;;;;;5051811;28;1999;-61
2022/03/26 03:27:58;;;;;;;;;;;;;;;;;;5051720;28;995;-61
2022/03/26 03:30:25;;;;;;;;;;;;;;;;;;5051619;28;950;-61
2022/03/26 03:32:51;;;;;;;;;;;;;;;;;;5051187;28;937;-61
2022/03/26 03:35:16;;;;;;;;;;;;;;;;;;5051376;28;849;-61
2022/03/26 03:37:42;;;;;;;;;;;;;;;;;;5051984;28;1094;-61
2022/03/26 03:40:08;;;;;;;;;;;;;;;;;;5051768;28;839;-61
2022/03/26 03:42:33;;;;;;;;;;;;;;;;;;5067107;28;907;-61
2022/03/26 03:44:58;;;;;;;;;;;;;;;;;;5052054;28;817;-61
2022/03/26 03:47:24;;;;;;;;;;;;;;;;;;5052017;28;1890;-61
2022/03/26 03:49:49;;;;;;;;;;;;;;;;;;5051697;28;824;-61
2022/03/26 03:52:15;;;;;;;;;;;;;;;;;;5051953;28;797;-61
2022/03/26 03:54:40;;;;;;;;;;;;;;;;;;5051729;28;813;-60
2022/03/26 03:57:05;;;;;;;;;;;;;;;;;;5051269;28;888;-61
2022/03/26 03:59:31;;;;;;;;;;;;;;;;;;5034192;28;762;-61
2022/03/26 04:01:56;;;;;;;;;;;;;;;;;;5051339;28;1011;-61
2022/03/26 04:04:21;;;;;;;;;;;;;;;;;;5051583;28;983;-62
2022/03/26 04:06:46;;;;;;;;;;;;;;;;;;5051395;28;1902;-62
2022/03/26 04:09:12;;;;;;;;;;;;;;;;;;5051401;28;900;-61
2022/03/26 04:11:37;;;;;;;;;;;;;;;;;;5033668;28;920;-61
2022/03/26 04:14:02;;;;;;;;;;;;;;;;;;5051367;28;833;-61
2022/03/26 04:16:27;;;;;;;;;;;;;;;;;;5051593;28;825;-62
2022/03/26 04:18:53;;;;;;;;;;;;;;;;;;5033267;28;830;-62
2022/03/26 04:21:18;;;;;;;;;;;;;;;;;;5051374;28;853;-61
2022/03/26 04:23:43;;;;;;;;;;;;;;;;;;5050931;28;821;-61
2022/03/26 04:26:09;;;;;;;;;;;;;;;;;;5050643;28;1973;-61
2022/03/26 04:28:34;;;;;;;;;;;;;;;;;;5050944;28;853;-61
2022/03/26 04:30:59;;;;;;;;;;;;;;;;;;5032619;28;909;-63
2022/03/26 04:33:25;;;;;;;;;;;;;;;;;;5051165;28;849;-61
2022/03/26 04:35:50;;;;;;;;;;;;;;;;;;5050573;28;833;-61
2022/03/26 04:38:16;;;;;;;;;;;;;;;;;;5032983;28;920;-61
2022/03/26 04:40:41;;;;;;;;;;;;;;;;;;5050820;28;861;-62
2022/03/26 04:43:06;;;;;;;;;;;;;;;;;;5050517;28;885;-61
2022/03/26 04:45:32;;;;;;;;;;;;;;;;;;5052410;28;1963;-61
2022/03/26 04:47:58;;;;;;;;;;;;;;;;;;5054120;28;912;-61
2022/03/26 04:50:23;;;;;;;;;;;;;;;;;;5054783;28;896;-61
2022/03/26 04:52:48;;;;;;;;;;;;;;;;;;5054705;28;1022;-61
2022/03/26 04:55:14;;;;;;;;;;;;;;;;;;5054446;28;864;-61
2022/03/26 04:57:39;;;;;;;;;;;;;;;;;;5054591;28;921;-60
2022/03/26 05:00:05;;;;;;;;;;;;;;;;;;5053959;28;915;-61
2022/03/26 05:02:30;;;;;;;;;;;;;;;;;;5054623;28;905;-61
2022/03/26 05:04:55;;;;;;;;;;;;;;;;;;5053841;28;996;-61
2022/03/26 05:10:05;;;;;;;;;;;;;;;;;;5054197;28;643;-61
2022/03/26 05:12:31;;;;;;;;;;;;;;;;;;5054598;28;908;-61
2022/03/26 05:14:56;;;;;;;;;;;;;;;;;;5054060;28;895;-61
2022/03/26 05:17:21;;;;;;;;;;;;;;;;;;5054314;28;1038;-61
2022/03/26 05:19:47;;;;;;;;;;;;;;;;;;5054003;28;944;-61
2022/03/26 05:22:12;;;;;;;;;;;;;;;;;;5054006;28;852;-61
2022/03/26 05:24:37;;;;;;;;;;;;;;;;;;5054073;28;1251;-61
2022/03/26 05:27:03;;;;;;;;;;;;;;;;;;5053695;28;1914;-61
2022/03/26 05:29:29;;;;;;;;;;;;;;;;;;5054227;28;879;-60
2022/03/26 05:31:54;;;;;;;;;;;;;;;;;;5053941;28;828;-61
2022/03/26 05:34:19;;;;;;;;;;;;;;;;;;5054283;28;860;-61
2022/03/26 05:36:45;;;;;;;;;;;;;;;;;;5054466;28;1050;-61
2022/03/26 05:39:10;;;;;;;;;;;;;;;;;;5054204;28;899;-60
2022/03/26 05:41:35;;;;;;;;;;;;;;;;;;5054371;28;999;-61
2022/03/26 05:44:01;;;;;;;;;;;;;;;;;;5054304;28;844;-61
2022/03/26 05:46:26;;;;;;;;;;;;;;;;;;5053941;28;1906;-60
2022/03/26 05:48:51;;;;;;;;;;;;;;;;;;5053805;28;904;-61
2022/03/26 05:51:16;;;;;;;;;;;;;;;;;;5036463;28;849;-61
2022/03/26 05:53:42;;;;;;;;;;;;;;;;;;5054130;28;952;-61
2022/03/26 05:56:07;;;;;;;;;;;;;;;;;;5053613;28;1039;-61
2022/03/26 05:58:34;;;;;;;;;;;;;;;;;;5053355;28;984;-61
2022/03/26 06:00:59;;;;;;;;;;;;;;;;;;5053659;28;853;-61
2022/03/26 06:03:25;;;;;;;;;;;;;;;;;;5053445;28;920;-61
2022/03/26 06:05:50;;;;;;;;;;;;;;;;;;5035465;28;1882;-61
2022/03/26 06:08:16;;;;;;;;;;;;;;;;;;5019008;28;1162;-61
2022/03/26 06:10:41;;;;;;;;;;;;;;;;;;5053191;28;805;-61
2022/03/26 06:13:06;;;;;;;;;;;;;;;;;;5052542;28;876;-61
2022/03/26 06:15:34;;;;;;;;;;;;;;;;;;5053040;28;979;-61
2022/03/26 06:18:00;;;;;;;;;;;;;;;;;;5052794;28;914;-61
2022/03/26 06:20:26;;;;;;;;;;;;;;;;;;5053269;28;782;-61
2022/03/26 06:22:52;;;;;;;;;;;;;;;;;;5052820;28;844;-61
2022/03/26 06:25:17;;;;;;;;;;;;;;;;;;5052318;28;1914;-60
2022/03/26 06:27:42;;;;;;;;;;;;;;;;;;5052843;28;842;-61
2022/03/26 06:30:08;;;;;;;;;;;;;;;;;;5052060;28;912;-61
2022/03/26 06:32:33;;;;;;;;;;;;;;;;;;5052671;28;943;-61
2022/03/26 06:34:58;;;;;;;;;;;;;;;;;;5051855;28;821;-60
2022/03/26 06:37:23;;;;;;;;;;;;;;;;;;5052859;28;833;-61
2022/03/26 06:39:49;;;;;;;;;;;;;;;;;;5052587;28;848;-61
2022/03/26 06:42:14;;;;;;;;;;;;;;;;;;5052209;28;983;-61
2022/03/26 06:44:39;;;;;;;;;;;;;;;;;;5052245;28;881;-60
2022/03/26 06:47:05;;;;;;;;;;;;;;;;;;5038848;28;1914;-61
2022/03/26 06:49:32;;;;;;;;;;;;;;;;;;5032577;28;880;-61
2022/03/26 06:51:58;;;;;;;;;;;;;;;;;;5031971;28;884;-61
2022/03/26 06:54:23;;;;;;;;;;;;;;;;;;5032349;28;1007;-61
2022/03/26 06:56:48;;;;;;;;;;;;;;;;;;5032439;28;910;-62
2022/03/26 06:59:13;;;;;;;;;;;;;;;;;;5031931;28;840;-61
2022/03/26 07:01:39;;;;;;;;;;;;;;;;;;5032510;28;896;-61
2022/03/26 07:04:04;;;;;;;;;;;;;;;;;;5032018;28;897;-61
2022/03/26 07:06:29;;;;;;;;;;;;;;;;;;5014521;28;1919;-61
2022/03/26 07:08:55;;;;;;;;;;;;;;;;;;5031445;28;887;-61
2022/03/26 07:11:21;;;;;;;;;;;;;;;;;;5032074;28;833;-61
2022/03/26 07:13:47;;;;;;;;;;;;;;;;;;5032314;28;1095;-62
2022/03/26 07:16:12;;;;;;;;;;;;;;;;;;5031787;28;891;-62
2022/03/26 07:18:37;;;;;;;;;;;;;;;;;;5032344;28;988;-62
2022/03/26 07:21:03;;;;;;;;;;;;;;;;;;5031506;28;860;-62
2022/03/26 07:23:28;;;;;;;;;;;;;;;;;;5032007;28;848;-61
2022/03/26 07:25:54;;;;;;;;;;;;;;;;;;5031550;28;1950;-61
2022/03/26 07:28:19;;;;;;;;;;;;;;;;;;5031804;28;879;-61
2022/03/26 07:30:44;;;;;;;;;;;;;;;;;;5032370;28;849;-62
2022/03/26 07:33:09;;;;;;;;;;;;;;;;;;5013655;28;1255;-62
2022/03/26 07:35:35;;;;;;;;;;;;;;;;;;5046816;28;829;-62
2022/03/26 07:38:00;;;;;;;;;;;;;;;;;;5031473;28;986;-62
2022/03/26 07:40:25;;;;;;;;;;;;;;;;;;5013735;28;1428;-62
2022/03/26 07:42:51;;;;;;;;;;;;;;;;;;5031837;28;822;-62
2022/03/26 07:45:16;;;;;;;;;;;;;;;;;;5031372;28;909;-62
2022/03/26 07:47:42;;;;;;;;;;;;;;;;;;5031407;28;1918;-62
2022/03/26 07:50:07;;;;;;;;;;;;;;;;;;5031852;28;992;-62
2022/03/26 07:52:33;;;;;;;;;;;;;;;;;;5033186;28;1146;-61
2022/03/26 07:54:59;;;;;;;;;;;;;;;;;;5032080;28;906;-62
2022/03/26 07:57:24;;;;;;;;;;;;;;;;;;5013846;28;893;-62
2022/03/26 07:59:49;;;;;;;;;;;;;;;;;;5014591;28;689;-62
2022/03/26 08:02:15;;;;;;;;;;;;;;;;;;5031528;28;853;-62
2022/03/26 08:04:40;;;;;;;;;;;;;;;;;;5031974;28;989;-62
2022/03/26 08:07:06;;;;;;;;;;;;;;;;;;5031303;28;1899;-62
2022/03/26 08:09:31;;;;;;;;;;;;;;;;;;5030660;28;845;-62
2022/03/26 08:11:57;;;;;;;;;;;;;;;;;;5031096;28;928;-62
2022/03/26 08:14:22;;;;;;;;;;;;;;;;;;5031298;28;924;-62
2022/03/26 08:16:47;;;;;;;;;;;;;;;;;;5030929;28;908;-62
2022/03/26 08:19:13;;;;;;;;;;;;;;;;;;5030229;28;849;-62
2022/03/26 08:21:38;;;;;;;;;;;;;;;;;;5031120;28;997;-61
2022/03/26 08:24:04;;;;;;;;;;;;;;;;;;5030880;28;857;-62
2022/03/26 08:26:29;;;;;;;;;;;;;;;;;;5030882;28;1911;-62
2022/03/26 08:28:55;;;;;;;;;;;;;;;;;;5031187;28;829;-62
2022/03/26 08:31:22;;;;;;;;;;;;;;;;;;5030413;28;1431;-61
2022/03/26 08:33:47;;;;;;;;;;;;;;;;;;5031440;28;877;-61
2022/03/26 08:36:13;;;;;;;;;;;;;;;;;;5031071;28;897;-61
2022/03/26 08:38:39;;;;;;;;;;;;;;;;;;5031126;28;853;-62
2022/03/26 08:41:04;;;;;;;;;;;;;;;;;;5031109;28;829;-62
2022/03/26 08:43:30;;;;;;;;;;;;;;;;;;5031374;28;829;-62
2022/03/26 08:45:55;;;;;;;;;;;;;;;;;;5030940;28;1993;-62
2022/03/26 08:48:21;;;;;;;;;;;;;;;;;;5013314;28;1189;-61
2022/03/26 08:50:47;;;;;;;;;;;;;;;;;;5031548;28;1114;-62
2022/03/26 08:53:13;;;;;;;;;;;;;;;;;;5030897;28;857;-62
2022/03/26 08:55:38;;;;;;;;;;;;;;;;;;5046861;28;1658;-61
2022/03/26 08:58:04;;;;;;;;;;;;;;;;;;5030632;28;996;-61
2022/03/26 09:00:29;;;;;;;;;;;;;;;;;;5031101;28;912;-62
2022/03/26 09:02:55;;;;;;;;;;;;;;;;;;5030895;28;848;-61
2022/03/26 09:05:20;;;;;;;;;;;;;;;;;;5030448;28;872;-61
2022/03/26 09:07:46;;;;;;;;;;;;;;;;;;5012845;28;1906;-62
2022/03/26 09:10:11;;;;;;;;;;;;;;;;;;5030815;28;943;-61
2022/03/26 09:12:37;;;;;;;;;;;;;;;;;;5029919;28;1059;-62
2022/03/26 09:15:03;;;;;;;;;;;;;;;;;;5030215;28;822;-62
2022/03/26 09:17:28;;;;;;;;;;;;;;;;;;5030113;28;1075;-61
2022/03/26 09:19:54;;;;;;;;;;;;;;;;;;5030358;28;1130;-62
2022/03/26 09:22:19;;;;;;;;;;;;;;;;;;5030083;28;806;-61
2022/03/26 09:24:45;;;;;;;;;;;;;;;;;;5030473;28;1054;-62
2022/03/26 09:27:10;;;;;;;;;;;;;;;;;;5030629;28;1973;-62
2022/03/26 09:29:35;;;;;;;;;;;;;;;;;;5030417;28;987;-62
2022/03/26 09:32:01;;;;;;;;;;;;;;;;;;5031214;28;837;-62
2022/03/26 09:34:26;;;;;;;;;;;;;;;;;;5015816;28;1518;-61
2022/03/26 09:36:53;;;;;;;;;;;;;;;;;;5033965;28;979;-62
2022/03/26 09:39:19;;;;;;;;;;;;;;;;;;5034416;28;900;-62
2022/03/26 09:41:45;;;;;;;;;;;;;;;;;;5000196;28;1752;-62
2022/03/26 09:44:11;;;;;;;;;;;;;;;;;;5033866;28;1161;-62
2022/03/26 09:46:36;;;;;;;;;;;;;;;;;;5033761;28;1967;-62
2022/03/26 09:49:03;;;;;;;;;;;;;;;;;;5033621;28;898;-62
2022/03/26 09:51:28;;;;;;;;;;;;;;;;;;5033454;28;876;-62
2022/03/26 09:53:54;;;;;;;;;;;;;;;;;;5034264;28;833;-62
2022/03/26 09:56:20;;;;;;;;;;;;;;;;;;5049214;28;1218;-62
2022/03/26 09:58:46;;;;;;;;;;;;;;;;;;5033945;28;909;-62
2022/03/26 10:01:11;;;;;;;;;;;;;;;;;;5033412;28;864;-62
2022/03/26 10:03:39;;;;;;;;;;;;;;;;;;5033404;28;863;-62
2022/03/26 10:06:07;;;;;;;;;;;;;;;;;;5033641;28;1982;-62
2022/03/26 10:08:36;;;;;;;;;;;;;;;;;;5033480;28;947;-62
2022/03/26 10:11:02;;;;;;;;;;;;;;;;;;5033566;28;825;-62
2022/03/26 10:13:38;;;;;;;;;;;;;;;;;;5033574;28;992;-62
2022/03/26 10:16:04;;;;;;;;;;;;;;;;;;5033454;28;873;-62
2022/03/26 10:18:36;;;;;;;;;;;;;;;;;;5033498;28;1064;-62
2022/03/26 10:21:03;;;;;;;;;;;;;;;;;;5033644;28;849;-62
2022/03/26 10:23:28;;;;;;;;;;;;;;;;;;5033537;28;790;-69
2022/03/26 10:26:04;;;;;;;;;;;;;;;;;;5033045;28;1969;-70
2022/03/26 10:28:29;;;;;;;;;;;;;;;;;;5032815;28;1063;-69
2022/03/26 10:34:00;;;;;;;;;;;;;;;;;;5033167;28;731;-69
2022/03/26 10:36:25;;;;;;;;;;;;;;;;;;5033006;28;908;-70
2022/03/26 10:38:51;;;;;;;;;;;;;;;;;;5032674;28;1034;-69
2022/03/26 10:41:20;;;;;;;;;;;;;;;;;;5032792;28;834;-70
2022/03/26 10:43:45;;;;;;;;;;;;;;;;;;5031073;28;1227;-70
2022/03/26 10:46:11;;;;;;;;;;;;;;;;;;5032313;28;1997;-69
2022/03/26 10:48:37;;;;;;;;;;;;;;;;;;5032038;28;924;-70
2022/03/26 10:51:06;;;;;;;;;;;;;;;;;;5032201;28;943;-70
2022/03/26 10:53:42;;;;;;;;;;;;;;;;;;5032093;28;880;-70
2022/03/26 10:56:09;;;;;;;;;;;;;;;;;;5031905;28;1015;-70
2022/03/26 10:58:35;;;;;;;;;;;;;;;;;;5014047;28;1209;-71
2022/03/26 11:01:02;;;;;;;;;;;;;;;;;;5032183;28;805;-70
2022/03/26 11:03:27;;;;;;;;;;;;;;;;;;5014397;28;1362;-70
2022/03/26 11:05:56;;;;;;;;;;;;;;;;;;5031669;28;1956;-71
2022/03/26 11:08:23;;;;;;;;;;;;;;;;;;5031922;28;853;-70
2022/03/26 11:10:50;;;;;;;;;;;;;;;;;;5014000;28;1227;-71
2022/03/26 11:13:17;;;;;;;;;;;;;;;;;;5047096;28;1875;-70
2022/03/26 11:15:46;;;;;;;;;;;;;;;;;;5032174;28;766;-70
2022/03/26 11:18:30;;;;;;;;;;;;;;;;;;5031958;28;972;-70
2022/03/26 11:21:14;;;;;;;;;;;;;;;;;;5031873;28;932;-71
2022/03/26 11:23:51;;;;;;;;;;;;;;;;;;5031973;28;892;-70
2022/03/26 11:26:23;;;;;;;;;;;;;;;;;;5031814;28;1975;-70
2022/03/26 11:28:54;;;;;;;;;;;;;;;;;;5031925;28;1020;-70
2022/03/26 11:31:19;;;;;;;;;;;;;;;;;;5032296;28;776;-70
2022/03/26 11:33:47;;;;;;;;;;;;;;;;;;5032030;28;1014;-70
2022/03/26 11:36:16;;;;;;;;;;;;;;;;;;5031624;28;859;-70
2022/03/26 11:38:52;;;;;;;;;;;;;;;;;;5031775;28;932;-70
2022/03/26 11:41:29;;;;;;;;;;;;;;;;;;5032183;28;857;-71
2022/03/26 11:43:55;;;;;;;;;;;;;;;;;;5031578;28;893;-70
2022/03/26 11:50:51;;;;;;;;;;;;;;;;;;5031286;28;641;-70
2022/03/26 11:52:46;;;;;;;;;;;;;;;;;;5026511;28;1928;-70
2022/03/26 11:55:12;;;;;;;;;;;;;;;;;;5030833;28;814;-70
2022/03/26 11:57:37;;;;;;;;;;;;;;;;;;5031432;28;904;-70
2022/03/26 12:00:08;;;;;;;;;;;;;;;;;;5013818;28;1400;-62
2022/03/26 12:02:35;;;;;;;;;;;;;;;;;;5032068;28;873;-63
2022/03/26 12:06:36;;;;;;;;;;;;;;;;;;5031029;28;770;-62
2022/03/26 12:08:08;;;;;;;;;;;;;;;;;;5031357;28;1906;-63
2022/03/26 12:10:33;;;;;;;;;;;;;;;;;;5031095;28;1015;-62
2022/03/26 12:13:00;;;;;;;;;;;;;;;;;;5030981;28;976;-62
2022/03/26 12:15:27;;;;;;;;;;;;;;;;;;5013513;28;829;-62
2022/03/26 12:18:12;;;;;;;;;;;;;;;;;;5031080;28;911;-63
2022/03/26 12:20:45;;;;;;;;;;;;;;;;;;5030383;28;1046;-62
2022/03/26 12:23:12;;;;;;;;;;;;;;;;;;5030526;28;876;-62
2022/03/26 12:25:49;;;;;;;;;;;;;;;;;;5030811;28;1969;-63
2022/03/26 12:28:15;;;;;;;;;;;;;;;;;;5030799;28;979;-63
2022/03/26 12:30:45;;;;;;;;;;;;;;;;;;5030802;28;1713;-63
2022/03/26 12:33:11;;;;;;;;;;;;;;;;;;5030768;28;947;-63
2022/03/26 12:35:38;;;;;;;;;;;;;;;;;;5030794;28;854;-63
2022/03/26 12:38:04;;;;;;;;;;;;;;;;;;5030017;28;897;-63
2022/03/26 12:40:29;;;;;;;;;;;;;;;;;;5030513;28;902;-63
2022/03/26 12:42:55;;;;;;;;;;;;;;;;;;5030291;28;836;-63
2022/03/26 12:45:21;;;;;;;;;;;;;;;;;;5030922;28;844;-63
2022/03/26 12:47:47;;;;;;;;;;;;;;;;;;5013536;28;1935;-62
2022/03/26 12:50:16;;;;;;;;;;;;;;;;;;5030922;28;924;-61
2022/03/26 12:52:42;;;;;;;;;;;;;;;;;;5031564;28;825;-62
2022/03/26 12:55:07;;;;;;;;;;;;;;;;;;5030398;28;896;-64
2022/03/26 13:00:23;;;;;;;;;;;;;;;;;;5031031;28;747;-63
2022/03/26 13:03:00;;;;;;;;;;;;;;;;;;5031182;28;818;-64
2022/03/26 13:05:27;;;;;;;;;;;;;;;;;;5032130;28;822;-63
2022/03/26 13:07:56;;;;;;;;;;;;;;;;;;5034847;28;1985;-63
2022/03/26 13:10:35;;;;;;;;;;;;;;;;;;5036494;28;884;-63
2022/03/26 13:13:01;;;;;;;;;;;;;;;;;;5035486;28;885;-63
2022/03/26 13:15:26;;;;;;;;;;;;;;;;;;5035649;28;947;-63
2022/03/26 13:17:55;;;;;;;;;;;;;;;;;;5035518;28;841;-64
2022/03/26 13:20:28;;;;;;;;;;;;;;;;;;5034907;28;931;-63
2022/03/26 13:22:58;;;;;;;;;;;;;;;;;;5035237;28;857;-63
2022/03/26 13:25:23;;;;;;;;;;;;;;;;;;5016869;28;1268;-63
2022/03/26 13:27:48;;;;;;;;;;;;;;;;;;5034749;28;1950;-63
2022/03/26 13:30:14;;;;;;;;;;;;;;;;;;5034098;28;964;-63
2022/03/26 13:32:43;;;;;;;;;;;;;;;;;;5034058;28;929;-63
2022/03/26 13:35:08;;;;;;;;;;;;;;;;;;5034262;28;935;-64
2022/03/26 13:37:34;;;;;;;;;;;;;;;;;;5034685;28;987;-64
2022/03/26 13:40:01;;;;;;;;;;;;;;;;;;5034112;28;1043;-65
2022/03/26 13:42:27;;;;;;;;;;;;;;;;;;5034381;28;955;-64
2022/03/26 13:44:53;;;;;;;;;;;;;;;;;;5033882;28;818;-65
2022/03/26 13:47:30;;;;;;;;;;;;;;;;;;5033679;28;1898;-65
2022/03/26 13:50:09;;;;;;;;;;;;;;;;;;5033888;28;946;-63
2022/03/26 13:52:36;;;;;;;;;;;;;;;;;;5034092;28;959;-64
2022/03/26 13:55:01;;;;;;;;;;;;;;;;;;5033494;28;853;-64
2022/03/26 13:57:35;;;;;;;;;;;;;;;;;;5033954;28;905;-65
2022/03/26 14:00:07;;;;;;;;;;;;;;;;;;5033969;28;897;-63
2022/03/26 14:02:36;;;;;;;;;;;;;;;;;;5033836;28;1414;-64
2022/03/26 14:05:01;;;;;;;;;;;;;;;;;;5033584;28;853;-64
2022/03/26 14:07:26;;;;;;;;;;;;;;;;;;5033063;28;1902;-63
2022/03/26 14:09:53;;;;;;;;;;;;;;;;;;5033559;28;987;-63
2022/03/26 14:12:18;;;;;;;;;;;;;;;;;;5032920;28;943;-63
2022/03/26 14:14:43;;;;;;;;;;;;;;;;;;5033660;28;798;-63
2022/03/26 14:17:08;;;;;;;;;;;;;;;;;;5032705;28;916;-63
2022/03/26 14:19:34;;;;;;;;;;;;;;;;;;5032712;28;830;-63
2022/03/26 14:21:59;;;;;;;;;;;;;;;;;;5032645;28;924;-63
2022/03/26 14:24:24;;;;;;;;;;;;;;;;;;5032903;28;865;-62
2022/03/26 14:26:49;;;;;;;;;;;;;;;;;;5033341;28;1964;-63
2022/03/26 14:29:15;;;;;;;;;;;;;;;;;;5033094;28;873;-63
2022/03/26 14:31:40;;;;;;;;;;;;;;;;;;5033860;28;840;-63
2022/03/26 14:34:05;;;;;;;;;;;;;;;;;;5033760;28;765;-63
2022/03/26 14:36:30;;;;;;;;;;;;;;;;;;5015662;28;1274;-63
2022/03/26 14:38:56;;;;;;;;;;;;;;;;;;5032973;28;861;-63
2022/03/26 14:41:21;;;;;;;;;;;;;;;;;;5032955;28;857;-63
2022/03/26 14:43:47;;;;;;;;;;;;;;;;;;5033847;28;892;-63
2022/03/26 14:46:12;;;;;;;;;;;;;;;;;;5033056;28;1902;-63
2022/03/26 14:48:38;;;;;;;;;;;;;;;;;;5033716;28;901;-63
2022/03/26 14:51:03;;;;;;;;;;;;;;;;;;5033149;28;1011;-63
2022/03/26 14:53:28;;;;;;;;;;;;;;;;;;5033135;28;848;-63
2022/03/26 14:55:54;;;;;;;;;;;;;;;;;;5033514;28;917;-63
2022/03/26 14:58:19;;;;;;;;;;;;;;;;;;5033119;28;1037;-63
2022/03/26 15:00:45;;;;;;;;;;;;;;;;;;5015286;28;1256;-63
2022/03/26 15:03:10;;;;;;;;;;;;;;;;;;5014505;28;1183;-63
2022/03/26 15:05:35;;;;;;;;;;;;;;;;;;5032656;28;896;-63
2022/03/26 15:08:00;;;;;;;;;;;;;;;;;;5032698;28;1914;-63
2022/03/26 15:10:26;;;;;;;;;;;;;;;;;;5032115;28;1050;-63
2022/03/26 15:12:51;;;;;;;;;;;;;;;;;;5032922;28;916;-63
2022/03/26 15:15:17;;;;;;;;;;;;;;;;;;5032427;28;833;-63
2022/03/26 15:17:43;;;;;;;;;;;;;;;;;;5032874;28;938;-63
2022/03/26 15:20:08;;;;;;;;;;;;;;;;;;5014273;28;1308;-63
2022/03/26 15:22:34;;;;;;;;;;;;;;;;;;5032773;28;912;-63
2022/03/26 15:25:00;;;;;;;;;;;;;;;;;;5032655;28;1365;-63
2022/03/26 15:27:26;;;;;;;;;;;;;;;;;;5032642;28;1918;-62
2022/03/26 15:29:51;;;;;;;;;;;;;;;;;;5031697;28;852;-63
2022/03/26 15:32:17;;;;;;;;;;;;;;;;;;5031974;28;754;-63
2022/03/26 15:34:42;;;;;;;;;;;;;;;;;;5031778;28;835;-63
2022/03/26 15:37:08;;;;;;;;;;;;;;;;;;5031519;28;904;-63
2022/03/26 15:39:33;;;;;;;;;;;;;;;;;;5032416;28;829;-63
2022/03/26 15:41:58;;;;;;;;;;;;;;;;;;5032344;28;845;-63
2022/03/26 15:44:24;;;;;;;;;;;;;;;;;;5031869;28;841;-63
2022/03/26 15:46:49;;;;;;;;;;;;;;;;;;5032595;28;1985;-63
2022/03/26 15:49:14;;;;;;;;;;;;;;;;;;5031254;28;846;-63
2022/03/26 15:51:40;;;;;;;;;;;;;;;;;;5031685;28;829;-63
2022/03/26 15:54:05;;;;;;;;;;;;;;;;;;5031310;28;857;-63
2022/03/26 15:56:31;;;;;;;;;;;;;;;;;;5031737;28;813;-63
2022/03/26 15:58:56;;;;;;;;;;;;;;;;;;5031598;28;1097;-63
2022/03/26 16:01:22;;;;;;;;;;;;;;;;;;5031078;28;832;-63
2022/03/26 16:03:47;;;;;;;;;;;;;;;;;;5031415;28;1050;-63
2022/03/26 16:06:15;;;;;;;;;;;;;;;;;;5030790;28;1965;-63
2022/03/26 16:08:41;;;;;;;;;;;;;;;;;;5031468;28;862;-63
2022/03/26 16:11:06;;;;;;;;;;;;;;;;;;5031165;28;957;-63
2022/03/26 16:13:31;;;;;;;;;;;;;;;;;;5031481;28;886;-63
2022/03/26 16:15:57;;;;;;;;;;;;;;;;;;5013732;28;1388;-63
2022/03/26 16:18:22;;;;;;;;;;;;;;;;;;5031265;28;762;-63
2022/03/26 16:20:48;;;;;;;;;;;;;;;;;;5031928;28;821;-63
2022/03/26 16:23:14;;;;;;;;;;;;;;;;;;5030675;28;955;-63
2022/03/26 16:25:39;;;;;;;;;;;;;;;;;;5031684;28;1117;-63
2022/03/26 16:28:05;;;;;;;;;;;;;;;;;;5031590;28;927;-64
2022/03/26 16:30:30;;;;;;;;;;;;;;;;;;5031625;28;880;-63
2022/03/26 16:32:57;;;;;;;;;;;;;;;;;;5031725;28;674;-63
2022/03/26 16:35:23;;;;;;;;;;;;;;;;;;5030983;28;891;-63
2022/03/26 16:37:48;;;;;;;;;;;;;;;;;;5031876;28;1008;-63
2022/03/26 16:40:13;;;;;;;;;;;;;;;;;;5031264;28;925;-63
2022/03/26 16:42:38;;;;;;;;;;;;;;;;;;5035197;28;836;-63
2022/03/26 16:45:04;;;;;;;;;;;;;;;;;;5035637;28;999;-63
2022/03/26 16:47:30;;;;;;;;;;;;;;;;;;5035317;28;1898;-63
2022/03/26 16:49:55;;;;;;;;;;;;;;;;;;5035717;28;837;-63
2022/03/26 16:52:20;;;;;;;;;;;;;;;;;;5035131;28;983;-63
2022/03/26 16:54:46;;;;;;;;;;;;;;;;;;5034046;28;1319;-63
2022/03/26 16:57:11;;;;;;;;;;;;;;;;;;5035229;28;972;-63
2022/03/26 16:59:37;;;;;;;;;;;;;;;;;;5035441;28;837;-63
2022/03/26 17:02:06;;;;;;;;;;;;;;;;;;5050223;28;1456;-63
2022/03/26 17:04:32;;;;;;;;;;;;;;;;;;5035014;28;832;-63
2022/03/26 17:06:57;;;;;;;;;;;;;;;;;;5035267;28;1972;-63
2022/03/26 17:09:23;;;;;;;;;;;;;;;;;;5034337;28;809;-63
2022/03/26 17:11:48;;;;;;;;;;;;;;;;;;5035046;28;991;-63
2022/03/26 17:14:13;;;;;;;;;;;;;;;;;;5034735;28;869;-62
2022/03/26 17:16:39;;;;;;;;;;;;;;;;;;5034930;28;932;-63
2022/03/26 17:19:04;;;;;;;;;;;;;;;;;;5035099;28;1207;-63
2022/03/26 17:21:35;;;;;;;;;;;;;;;;;;5034544;28;845;-63